Austin/Bergstrom AFB, Texas
Current Conditions -  °F | °C
As of 1:53 AM on Wednesday 26 Nov 2014 (Local Time) from KAUS Reporting Station
Clear Clear  
Wind Chill: 41°   Ceiling: Unl
Heat Index: 44°   Visibility: 10mi
Dew Point: 34°   Wind: 6mph
Humidity: 68%   Direction: 230°SW
Pressure: 30.17"   Gusts: NA
Location:  30.2°N, 97.68°W
Report Text: KAUS 260753Z 23005KT 10SM CLR 07/01 A3017 RMK AO2 SLP216 T00670011
Loading
Personal Weather Stations






























Interactive Weather Map New forecast layout! Learn more

10-Day Weather Forecast

Advertisements
Track Severe Weather on mobile